Aviation Digital Data Service (ADDS)

Output produced by METARs form (0145 UTC 29 November 2020)
found at http://www.aviationweather.gov/metar/data/
 
METAR text: RJAA 290130Z 02005KT 340V040 9999 FEW030 BKN060 10/02 Q1022 NOSIG RMK 1CU030 7SC060 A3020
Conditions at: RJAA (NARITA INTL , JP) observed 0130 UTC 29 November 2020
Temperature: 10.0°C (50°F)
Dewpoint: 2.0°C (36°F) [RH = 57%]
Pressure (altimeter): 30.18 inches Hg (1022.0 mb)
Winds: from the NNE (20 degrees) at 6 MPH (5 knots; 2.6 m/s)
Visibility: 6 or more miles (10+ km)
Ceiling: 6000 feet AGL
Clouds: few clouds at 3000 feet AGL
broken clouds at 6000 feet AGL
Weather: no significant weather observed at this time

METAR text: RJAA 290100Z 01006KT 9999 FEW030 BKN050 BKN070 11/02 Q1022 NOSIG RMK 1CU030 5SC050 7AC070 A3020
Conditions at: RJAA (NARITA INTL , JP) observed 0100 UTC 29 November 2020
Temperature: 11.0°C (52°F)
Dewpoint: 2.0°C (36°F) [RH = 54%]
Pressure (altimeter): 30.18 inches Hg (1022.0 mb)
Winds: from the N (10 degrees) at 7 MPH (6 knots; 3.1 m/s)
Visibility: 6 or more miles (10+ km)
Ceiling: 5000 feet AGL
Clouds: few clouds at 3000 feet AGL
broken clouds at 5000 feet AGL
broken clouds at 7000 feet AGL
Weather: no significant weather observed at this time

METAR text: RJAA 290030Z 01006KT 340V040 9999 FEW030 SCT050 BKN070 10/01 Q1023 NOSIG RMK 1CU030 4SC050 6AC070 A3021
Conditions at: RJAA (NARITA INTL , JP) observed 0030 UTC 29 November 2020
Temperature: 10.0°C (50°F)
Dewpoint: 1.0°C (34°F) [RH = 53%]
Pressure (altimeter): 30.21 inches Hg (1023.0 mb)
Winds: from the N (10 degrees) at 7 MPH (6 knots; 3.1 m/s)
Visibility: 6 or more miles (10+ km)
Ceiling: 7000 feet AGL
Clouds: few clouds at 3000 feet AGL
scattered clouds at 5000 feet AGL
broken clouds at 7000 feet AGL
Weather: no significant weather observed at this time

METAR text: RJAA 290000Z 01004KT 340V060 9999 FEW030 SCT050 BKN070 09/02 Q1023 NOSIG RMK 1CU030 4SC050 7AC070 A3021
Conditions at: RJAA (NARITA INTL , JP) observed 0000 UTC 29 November 2020
Temperature: 9.0°C (48°F)
Dewpoint: 2.0°C (36°F) [RH = 61%]
Pressure (altimeter): 30.21 inches Hg (1023.0 mb)
Winds: from the N (10 degrees) at 5 MPH (4 knots; 2.1 m/s)
Visibility: 6 or more miles (10+ km)
Ceiling: 7000 feet AGL
Clouds: few clouds at 3000 feet AGL
scattered clouds at 5000 feet AGL
broken clouds at 7000 feet AGL
Weather: no significant weather observed at this time

METAR text: RJAA 282330Z 33004KT 9999 FEW030 SCT050 BKN070 08/02 Q1023 NOSIG RMK 1CU030 4SC050 7AC070 A3021
Conditions at: RJAA (NARITA INTL , JP) observed 2330 UTC 28 November 2020
Temperature: 8.0°C (46°F)
Dewpoint: 2.0°C (36°F) [RH = 66%]
Pressure (altimeter): 30.21 inches Hg (1023.0 mb)
Winds: from the NNW (330 degrees) at 5 MPH (4 knots; 2.1 m/s)
Visibility: 6 or more miles (10+ km)
Ceiling: 7000 feet AGL
Clouds: few clouds at 3000 feet AGL
scattered clouds at 5000 feet AGL
broken clouds at 7000 feet AGL
Weather: no significant weather observed at this time

METAR text: RJAA 282300Z 33004KT 9999 FEW030 SCT060 BKN/// 08/01 Q1022 NOSIG RMK 1CU030 4SC060 A3020
Conditions at: RJAA (NARITA INTL , JP) observed 2300 UTC 28 November 2020
Temperature: 8.0°C (46°F)
Dewpoint: 1.0°C (34°F) [RH = 61%]
Pressure (altimeter): 30.18 inches Hg (1022.0 mb)
Winds: from the NNW (330 degrees) at 5 MPH (4 knots; 2.1 m/s)
Visibility: 6 or more miles (10+ km)
Ceiling: at least 12,000 feet AGL
Clouds: few clouds at 3000 feet AGL
scattered clouds at 6000 feet AGL
Weather: no significant weather observed at this time

METAR text: RJAA 282230Z VRB01KT 9999 FEW025 BKN190 07/01 Q1022 NOSIG RMK 1CU025 7AC190 A3020
Conditions at: RJAA (NARITA INTL , JP) observed 2230 UTC 28 November 2020
Temperature: 7.0°C (45°F)
Dewpoint: 1.0°C (34°F) [RH = 66%]
Pressure (altimeter): 30.18 inches Hg (1022.0 mb)
Winds: variable direction winds at 1 MPH (1 knots; 0.5 m/s)
Visibility: 6 or more miles (10+ km)
Ceiling: 19000 feet AGL
Clouds: few clouds at 2500 feet AGL
broken clouds at 19000 feet AGL
Weather: no significant weather observed at this time

METAR text: RJAA 282200Z VRB01KT 9999 FEW025 SCT070 BKN/// 06/02 Q1022 NOSIG RMK 1CU025 4AC070 A3018
Conditions at: RJAA (NARITA INTL , JP) observed 2200 UTC 28 November 2020
Temperature: 6.0°C (43°F)
Dewpoint: 2.0°C (36°F) [RH = 75%]
Pressure (altimeter): 30.18 inches Hg (1022.0 mb)
Winds: variable direction winds at 1 MPH (1 knots; 0.5 m/s)
Visibility: 6 or more miles (10+ km)
Ceiling: at least 12,000 feet AGL
Clouds: few clouds at 2500 feet AGL
scattered clouds at 7000 feet AGL
Weather: no significant weather observed at this time

METAR text: RJAA 282130Z 33003KT 9999 FEW030 SCT070 BKN/// 06/01 Q1021 NOSIG
Conditions at: RJAA (NARITA INTL , JP) observed 2130 UTC 28 November 2020
Temperature: 6.0°C (43°F)
Dewpoint: 1.0°C (34°F) [RH = 70%]
Pressure (altimeter): 30.15 inches Hg (1021.0 mb)
Winds: from the NNW (330 degrees) at 3 MPH (3 knots; 1.5 m/s)
Visibility: 6 or more miles (10+ km)
Ceiling: at least 12,000 feet AGL
Clouds: few clouds at 3000 feet AGL
scattered clouds at 7000 feet AGL
Weather: no significant weather observed at this time

METAR text: RJAA 282100Z 32005KT 9999 FEW030 SCT080 BKN/// 06/00 Q1021 NOSIG RMK 1CU030 3AC080 A3016
Conditions at: RJAA (NARITA INTL , JP) observed 2100 UTC 28 November 2020
Temperature: 6.0°C (43°F)
Dewpoint: 0.0°C (32°F) [RH = 65%]
Pressure (altimeter): 30.15 inches Hg (1021.0 mb)
Winds: from the NW (320 degrees) at 6 MPH (5 knots; 2.6 m/s)
Visibility: 6 or more miles (10+ km)
Ceiling: at least 12,000 feet AGL
Clouds: few clouds at 3000 feet AGL
scattered clouds at 8000 feet AGL
Weather: no significant weather observed at this time

METAR text: RJAA 282030Z 33004KT 9999 FEW030 SCT080 BKN/// 06/00 Q1021 NOSIG
Conditions at: RJAA (NARITA INTL , JP) observed 2030 UTC 28 November 2020
Temperature: 6.0°C (43°F)
Dewpoint: 0.0°C (32°F) [RH = 65%]
Pressure (altimeter): 30.15 inches Hg (1021.0 mb)
Winds: from the NNW (330 degrees) at 5 MPH (4 knots; 2.1 m/s)
Visibility: 6 or more miles (10+ km)
Ceiling: at least 12,000 feet AGL
Clouds: few clouds at 3000 feet AGL
scattered clouds at 8000 feet AGL
Weather: no significant weather observed at this time

METAR text: RJAA 282000Z 33004KT 9999 FEW030 BKN/// 06/01 Q1020 NOSIG RMK 1CU030 A3014
Conditions at: RJAA (NARITA INTL , JP) observed 2000 UTC 28 November 2020
Temperature: 6.0°C (43°F)
Dewpoint: 1.0°C (34°F) [RH = 70%]
Pressure (altimeter): 30.12 inches Hg (1020.0 mb)
Winds: from the NNW (330 degrees) at 5 MPH (4 knots; 2.1 m/s)
Visibility: 6 or more miles (10+ km)
Ceiling: at least 12,000 feet AGL
Clouds: few clouds at 3000 feet AGL
Weather: no significant weather observed at this time

METAR text: RJAA 281930Z 29002KT 9999 FEW030 SCT060 BKN/// 06/01 Q1020 NOSIG
Conditions at: RJAA (NARITA INTL , JP) observed 1930 UTC 28 November 2020
Temperature: 6.0°C (43°F)
Dewpoint: 1.0°C (34°F) [RH = 70%]
Pressure (altimeter): 30.12 inches Hg (1020.0 mb)
Winds: from the WNW (290 degrees) at 2 MPH (2 knots; 1.0 m/s)
Visibility: 6 or more miles (10+ km)
Ceiling: at least 12,000 feet AGL
Clouds: few clouds at 3000 feet AGL
scattered clouds at 6000 feet AGL
Weather: no significant weather observed at this time

METAR text: RJAA 281900Z 31003KT 9999 FEW030 BKN060 BKN/// 06/00 Q1020 NOSIG RMK 1CU030 5SC060 A3013
Conditions at: RJAA (NARITA INTL , JP) observed 1900 UTC 28 November 2020
Temperature: 6.0°C (43°F)
Dewpoint: 0.0°C (32°F) [RH = 65%]
Pressure (altimeter): 30.12 inches Hg (1020.0 mb)
Winds: from the NW (310 degrees) at 3 MPH (3 knots; 1.5 m/s)
Visibility: 6 or more miles (10+ km)
Ceiling: 6000 feet AGL
Clouds: few clouds at 3000 feet AGL
broken clouds at 6000 feet AGL
Weather: no significant weather observed at this time

METAR text: RJAA 281830Z 27003KT 9999 FEW025 BKN060 BKN/// 06/01 Q1020 NOSIG RMK 1CU025 5SC060 A3013
Conditions at: RJAA (NARITA INTL , JP) observed 1830 UTC 28 November 2020
Temperature: 6.0°C (43°F)
Dewpoint: 1.0°C (34°F) [RH = 70%]
Pressure (altimeter): 30.12 inches Hg (1020.0 mb)
Winds: from the W (270 degrees) at 3 MPH (3 knots; 1.5 m/s)
Visibility: 6 or more miles (10+ km)
Ceiling: 6000 feet AGL
Clouds: few clouds at 2500 feet AGL
broken clouds at 6000 feet AGL
Weather: no significant weather observed at this time

METAR text: RJAA 281800Z 24003KT 9999 FEW025 BKN060 05/01 Q1020 NOSIG RMK 1CU025 7SC060 A3013
Conditions at: RJAA (NARITA INTL , JP) observed 1800 UTC 28 November 2020
Temperature: 5.0°C (41°F)
Dewpoint: 1.0°C (34°F) [RH = 75%]
Pressure (altimeter): 30.12 inches Hg (1020.0 mb)
Winds: from the WSW (240 degrees) at 3 MPH (3 knots; 1.5 m/s)
Visibility: 6 or more miles (10+ km)
Ceiling: 6000 feet AGL
Clouds: few clouds at 2500 feet AGL
broken clouds at 6000 feet AGL
Weather: no significant weather observed at this time

METAR text: RJAA 281730Z VRB02KT 9999 FEW025 SCT060 BKN080 05/02 Q1020 NOSIG RMK 1CU025 4SC060 7AC080 A3013
Conditions at: RJAA (NARITA INTL , JP) observed 1730 UTC 28 November 2020
Temperature: 5.0°C (41°F)
Dewpoint: 2.0°C (36°F) [RH = 81%]
Pressure (altimeter): 30.12 inches Hg (1020.0 mb)
Winds: variable direction winds at 2 MPH (2 knots; 1.0 m/s)
Visibility: 6 or more miles (10+ km)
Ceiling: 8000 feet AGL
Clouds: few clouds at 2500 feet AGL
scattered clouds at 6000 feet AGL
broken clouds at 8000 feet AGL
Weather: no significant weather observed at this time

METAR text: RJAA 281700Z VRB02KT 9999 FEW030 BKN080 BKN180 06/01 Q1019 NOSIG RMK 1CU030 5AC080 7AC180 A3012
Conditions at: RJAA (NARITA INTL , JP) observed 1700 UTC 28 November 2020
Temperature: 6.0°C (43°F)
Dewpoint: 1.0°C (34°F) [RH = 70%]
Pressure (altimeter): 30.09 inches Hg (1019.0 mb)
Winds: variable direction winds at 2 MPH (2 knots; 1.0 m/s)
Visibility: 6 or more miles (10+ km)
Ceiling: 8000 feet AGL
Clouds: few clouds at 3000 feet AGL
broken clouds at 8000 feet AGL
broken clouds at 18000 feet AGL
Weather: no significant weather observed at this time

METAR text: RJAA 281630Z 33003KT 310V020 9999 FEW030 SCT080 BKN180 06/M00 Q1019 NOSIG RMK 1CU030 3AC080 6AC180 A3010
Conditions at: RJAA (NARITA INTL , JP) observed 1630 UTC 28 November 2020
Temperature: 6.0°C (43°F)
Dewpoint: 0.0°C (32°F) [RH = 65%]
Pressure (altimeter): 30.09 inches Hg (1019.0 mb)
Winds: from the NNW (330 degrees) at 3 MPH (3 knots; 1.5 m/s)
Visibility: 6 or more miles (10+ km)
Ceiling: 18000 feet AGL
Clouds: few clouds at 3000 feet AGL
scattered clouds at 8000 feet AGL
broken clouds at 18000 feet AGL
Weather: no significant weather observed at this time

METAR text: RJAA 281600Z 35002KT 9999 FEW030 SCT070 BKN190 04/01 Q1019 NOSIG RMK 1CU030 4AC070 7AC190 A3010
Conditions at: RJAA (NARITA INTL , JP) observed 1600 UTC 28 November 2020
Temperature: 4.0°C (39°F)
Dewpoint: 1.0°C (34°F) [RH = 81%]
Pressure (altimeter): 30.09 inches Hg (1019.0 mb)
Winds: from the N (350 degrees) at 2 MPH (2 knots; 1.0 m/s)
Visibility: 6 or more miles (10+ km)
Ceiling: 19000 feet AGL
Clouds: few clouds at 3000 feet AGL
scattered clouds at 7000 feet AGL
broken clouds at 19000 feet AGL
Weather: no significant weather observed at this time

METAR text: RJAA 281530Z 35003KT 9999 FEW030 SCT070 BKN/// 05/00 Q1019 NOSIG
Conditions at: RJAA (NARITA INTL , JP) observed 1530 UTC 28 November 2020
Temperature: 5.0°C (41°F)
Dewpoint: 0.0°C (32°F) [RH = 70%]
Pressure (altimeter): 30.09 inches Hg (1019.0 mb)
Winds: from the N (350 degrees) at 3 MPH (3 knots; 1.5 m/s)
Visibility: 6 or more miles (10+ km)
Ceiling: at least 12,000 feet AGL
Clouds: few clouds at 3000 feet AGL
scattered clouds at 7000 feet AGL
Weather: no significant weather observed at this time

METAR text: RJAA 281500Z 17002KT 9999 FEW030 SCT070 BKN/// 04/01 Q1019 NOSIG
Conditions at: RJAA (NARITA INTL , JP) observed 1500 UTC 28 November 2020
Temperature: 4.0°C (39°F)
Dewpoint: 1.0°C (34°F) [RH = 81%]
Pressure (altimeter): 30.09 inches Hg (1019.0 mb)
Winds: from the S (170 degrees) at 2 MPH (2 knots; 1.0 m/s)
Visibility: 6 or more miles (10+ km)
Ceiling: at least 12,000 feet AGL
Clouds: few clouds at 3000 feet AGL
scattered clouds at 7000 feet AGL
Weather: no significant weather observed at this time

METAR text: RJAA 281430Z VRB01KT 9999 FEW030 BKN/// 06/00 Q1019 NOSIG RMK 1CU030 A3010
Conditions at: RJAA (NARITA INTL , JP) observed 1430 UTC 28 November 2020
Temperature: 6.0°C (43°F)
Dewpoint: 0.0°C (32°F) [RH = 65%]
Pressure (altimeter): 30.09 inches Hg (1019.0 mb)
Winds: variable direction winds at 1 MPH (1 knots; 0.5 m/s)
Visibility: 6 or more miles (10+ km)
Ceiling: at least 12,000 feet AGL
Clouds: few clouds at 3000 feet AGL
Weather: no significant weather observed at this time

METAR text: RJAA 281400Z 04003KT 340V080 9999 FEW030 BKN/// 08/M01 Q1019 NOSIG RMK 1CU030 A3010
Conditions at: RJAA (NARITA INTL , JP) observed 1400 UTC 28 November 2020
Temperature: 8.0°C (46°F)
Dewpoint: -1.0°C (30°F) [RH = 53%]
Pressure (altimeter): 30.09 inches Hg (1019.0 mb)
Winds: from the NE (40 degrees) at 3 MPH (3 knots; 1.5 m/s)
Visibility: 6 or more miles (10+ km)
Ceiling: at least 12,000 feet AGL
Clouds: few clouds at 3000 feet AGL
Weather: no significant weather observed at this time

METAR text: RJAA 281330Z 03005KT 9999 FEW030 BKN/// 08/M02 Q1019 NOSIG
Conditions at: RJAA (NARITA INTL , JP) observed 1330 UTC 28 November 2020
Temperature: 8.0°C (46°F)
Dewpoint: -2.0°C (28°F) [RH = 49%]
Pressure (altimeter): 30.09 inches Hg (1019.0 mb)
Winds: from the NNE (30 degrees) at 6 MPH (5 knots; 2.6 m/s)
Visibility: 6 or more miles (10+ km)
Ceiling: at least 12,000 feet AGL
Clouds: few clouds at 3000 feet AGL
Weather: no significant weather observed at this time

METAR text: RJAA 281300Z 35010KT 9999 FEW030 BKN/// 08/M01 Q1018 NOSIG
Conditions at: RJAA (NARITA INTL , JP) observed 1300 UTC 28 November 2020
Temperature: 8.0°C (46°F)
Dewpoint: -1.0°C (30°F) [RH = 53%]
Pressure (altimeter): 30.06 inches Hg (1018.0 mb)
Winds: from the N (350 degrees) at 12 MPH (10 knots; 5.1 m/s)
Visibility: 6 or more miles (10+ km)
Ceiling: at least 12,000 feet AGL
Clouds: few clouds at 3000 feet AGL
Weather: no significant weather observed at this time

METAR text: RJAA 281230Z 01006KT 9999 FEW030 BKN/// 08/M01 Q1018 NOSIG RMK 1CU030 A3008
Conditions at: RJAA (NARITA INTL , JP) observed 1230 UTC 28 November 2020
Temperature: 8.0°C (46°F)
Dewpoint: -1.0°C (30°F) [RH = 53%]
Pressure (altimeter): 30.06 inches Hg (1018.0 mb)
Winds: from the N (10 degrees) at 7 MPH (6 knots; 3.1 m/s)
Visibility: 6 or more miles (10+ km)
Ceiling: at least 12,000 feet AGL
Clouds: few clouds at 3000 feet AGL
Weather: no significant weather observed at this time

METAR text: RJAA 281200Z 02007KT 9999 FEW030 BKN/// 08/M01 Q1018 NOSIG RMK 1CU030 A3007
Conditions at: RJAA (NARITA INTL , JP) observed 1200 UTC 28 November 2020
Temperature: 8.0°C (46°F)
Dewpoint: -1.0°C (30°F) [RH = 53%]
Pressure (altimeter): 30.06 inches Hg (1018.0 mb)
Winds: from the NNE (20 degrees) at 8 MPH (7 knots; 3.6 m/s)
Visibility: 6 or more miles (10+ km)
Ceiling: at least 12,000 feet AGL
Clouds: few clouds at 3000 feet AGL
Weather: no significant weather observed at this time

METAR text: RJAA 281130Z 03005KT 360V070 9999 FEW030 BKN/// 08/M01 Q1018 NOSIG
Conditions at: RJAA (NARITA INTL , JP) observed 1130 UTC 28 November 2020
Temperature: 8.0°C (46°F)
Dewpoint: -1.0°C (30°F) [RH = 53%]
Pressure (altimeter): 30.06 inches Hg (1018.0 mb)
Winds: from the NNE (30 degrees) at 6 MPH (5 knots; 2.6 m/s)
Visibility: 6 or more miles (10+ km)
Ceiling: at least 12,000 feet AGL
Clouds: few clouds at 3000 feet AGL
Weather: no significant weather observed at this time

METAR text: RJAA 281100Z 33004KT 300V010 9999 FEW030 BKN/// 08/M03 Q1018 NOSIG RMK 1CU030 A3006
Conditions at: RJAA (NARITA INTL , JP) observed 1100 UTC 28 November 2020
Temperature: 8.0°C (46°F)
Dewpoint: -3.0°C (27°F) [RH = 46%]
Pressure (altimeter): 30.06 inches Hg (1018.0 mb)
Winds: from the NNW (330 degrees) at 5 MPH (4 knots; 2.1 m/s)
Visibility: 6 or more miles (10+ km)
Ceiling: at least 12,000 feet AGL
Clouds: few clouds at 3000 feet AGL
Weather: no significant weather observed at this time

METAR text: RJAA 281030Z 32006KT 9999 FEW030 SCT/// 08/M03 Q1018 NOSIG RMK 1CU030 A3006
Conditions at: RJAA (NARITA INTL , JP) observed 1030 UTC 28 November 2020
Temperature: 8.0°C (46°F)
Dewpoint: -3.0°C (27°F) [RH = 46%]
Pressure (altimeter): 30.06 inches Hg (1018.0 mb)
Winds: from the NW (320 degrees) at 7 MPH (6 knots; 3.1 m/s)
Visibility: 6 or more miles (10+ km)
Ceiling: at least 12,000 feet AGL
Clouds: few clouds at 3000 feet AGL
Weather: no significant weather observed at this time

METAR text: RJAA 281000Z 32005KT 230V020 9999 FEW030 10/M03 Q1018 NOSIG RMK 1CU030 A3006 MOD TURB OBS AT 0950Z 45NM S NARITA BTN 11000FT AND 8000FT IN DES A320 APJ526
Conditions at: RJAA (NARITA INTL , JP) observed 1000 UTC 28 November 2020
Temperature: 10.0°C (50°F)
Dewpoint: -3.0°C (27°F) [RH = 40%]
Pressure (altimeter): 30.06 inches Hg (1018.0 mb)
Winds: from the NW (320 degrees) at 6 MPH (5 knots; 2.6 m/s)
Visibility: 6 or more miles (10+ km)
Ceiling: at least 12,000 feet AGL
Clouds: few clouds at 3000 feet AGL
Weather: no significant weather observed at this time

METAR text: RJAA 280930Z 32007KT 9999 FEW030 10/M02 Q1017 NOSIG RMK 1CU030 A3006
Conditions at: RJAA (NARITA INTL , JP) observed 0930 UTC 28 November 2020
Temperature: 10.0°C (50°F)
Dewpoint: -2.0°C (28°F) [RH = 43%]
Pressure (altimeter): 30.03 inches Hg (1017.0 mb)
Winds: from the NW (320 degrees) at 8 MPH (7 knots; 3.6 m/s)
Visibility: 6 or more miles (10+ km)
Ceiling: at least 12,000 feet AGL
Clouds: few clouds at 3000 feet AGL
Weather: no significant weather observed at this time

METAR text: RJAA 280900Z 32009KT 9999 FEW030 11/M03 Q1017 NOSIG RMK 1CU030 A3003
Conditions at: RJAA (NARITA INTL , JP) observed 0900 UTC 28 November 2020
Temperature: 11.0°C (52°F)
Dewpoint: -3.0°C (27°F) [RH = 37%]
Pressure (altimeter): 30.03 inches Hg (1017.0 mb)
Winds: from the NW (320 degrees) at 10 MPH (9 knots; 4.6 m/s)
Visibility: 6 or more miles (10+ km)
Ceiling: at least 12,000 feet AGL
Clouds: few clouds at 3000 feet AGL
Weather: no significant weather observed at this time

METAR text: RJAA 280830Z 32009KT 9999 FEW030 11/M03 Q1016 NOSIG RMK 1CU030 A3001
Conditions at: RJAA (NARITA INTL , JP) observed 0830 UTC 28 November 2020
Temperature: 11.0°C (52°F)
Dewpoint: -3.0°C (27°F) [RH = 37%]
Pressure (altimeter): 30.00 inches Hg (1016.0 mb)
Winds: from the NW (320 degrees) at 10 MPH (9 knots; 4.6 m/s)
Visibility: 6 or more miles (10+ km)
Ceiling: at least 12,000 feet AGL
Clouds: few clouds at 3000 feet AGL
Weather: no significant weather observed at this time

METAR text: RJAA 280800Z 32014KT 9999 FEW025 12/M04 Q1016 NOSIG RMK 1CU025 A3000 MOD TURB OBS AT 0745Z 60NM S NARITA BTN FL250 AND FL200 IN DES A320 JJP636
Conditions at: RJAA (NARITA INTL , JP) observed 0800 UTC 28 November 2020
Temperature: 12.0°C (54°F)
Dewpoint: -4.0°C (25°F) [RH = 32%]
Pressure (altimeter): 30.00 inches Hg (1016.0 mb)
Winds: from the NW (320 degrees) at 16 MPH (14 knots; 7.2 m/s)
Visibility: 6 or more miles (10+ km)
Ceiling: at least 12,000 feet AGL
Clouds: few clouds at 2500 feet AGL
Weather: no significant weather observed at this time

METAR text: RJAA 280730Z 31008KT 9999 FEW020 13/M01 Q1015 NOSIG RMK 1CU020 A2998
Conditions at: RJAA (NARITA INTL , JP) observed 0730 UTC 28 November 2020
Temperature: 13.0°C (55°F)
Dewpoint: -1.0°C (30°F) [RH = 38%]
Pressure (altimeter): 29.97 inches Hg (1015.0 mb)
Winds: from the NW (310 degrees) at 9 MPH (8 knots; 4.1 m/s)
Visibility: 6 or more miles (10+ km)
Ceiling: at least 12,000 feet AGL
Clouds: few clouds at 2000 feet AGL
Weather: no significant weather observed at this time

METAR text: RJAA 280700Z 35012KT 9999 FEW020 13/01 Q1014 NOSIG RMK 1CU020 A2997
Conditions at: RJAA (NARITA INTL , JP) observed 0700 UTC 28 November 2020
Temperature: 13.0°C (55°F)
Dewpoint: 1.0°C (34°F) [RH = 44%]
Pressure (altimeter): 29.94 inches Hg (1014.0 mb)
Winds: from the N (350 degrees) at 14 MPH (12 knots; 6.2 m/s)
Visibility: 6 or more miles (10+ km)
Ceiling: at least 12,000 feet AGL
Clouds: few clouds at 2000 feet AGL
Weather: no significant weather observed at this time

METAR text: RJAA 280630Z 01019KT 9999 FEW020 14/01 Q1014 NOSIG RMK 1CU020 A2994
Conditions at: RJAA (NARITA INTL , JP) observed 0630 UTC 28 November 2020
Temperature: 14.0°C (57°F)
Dewpoint: 1.0°C (34°F) [RH = 41%]
Pressure (altimeter): 29.94 inches Hg (1014.0 mb)
Winds: from the N (10 degrees) at 22 MPH (19 knots; 9.8 m/s)
Visibility: 6 or more miles (10+ km)
Ceiling: at least 12,000 feet AGL
Clouds: few clouds at 2000 feet AGL
Weather: no significant weather observed at this time

METAR text: RJAA 280600Z 32011KT 280V350 9999 FEW020 15/M01 Q1013 NOSIG RMK 1CU020 A2991 MOD TURB OBS AT 0542Z 30NM NE NARITA BTN 15000FT AND 13000FT IN DES B789 JAL408
Conditions at: RJAA (NARITA INTL , JP) observed 0600 UTC 28 November 2020
Temperature: 15.0°C (59°F)
Dewpoint: -1.0°C (30°F) [RH = 33%]
Pressure (altimeter): 29.91 inches Hg (1013.0 mb)
Winds: from the NW (320 degrees) at 13 MPH (11 knots; 5.7 m/s)
Visibility: 6 or more miles (10+ km)
Ceiling: at least 12,000 feet AGL
Clouds: few clouds at 2000 feet AGL
Weather: no significant weather observed at this time

METAR text: RJAA 280530Z 32014KT 9999 FEW020 16/M00 Q1012 NOSIG RMK 1CU020 A2990
Conditions at: RJAA (NARITA INTL , JP) observed 0530 UTC 28 November 2020
Temperature: 16.0°C (61°F)
Dewpoint: 0.0°C (32°F) [RH = 34%]
Pressure (altimeter): 29.88 inches Hg (1012.0 mb)
Winds: from the NW (320 degrees) at 16 MPH (14 knots; 7.2 m/s)
Visibility: 6 or more miles (10+ km)
Ceiling: at least 12,000 feet AGL
Clouds: few clouds at 2000 feet AGL
Weather: no significant weather observed at this time

METAR text: RJAA 280500Z 32013KT 280V350 9999 FEW020 16/00 Q1012 NOSIG RMK 1CU020 A2988
Conditions at: RJAA (NARITA INTL , JP) observed 0500 UTC 28 November 2020
Temperature: 16.0°C (61°F)
Dewpoint: 0.0°C (32°F) [RH = 34%]
Pressure (altimeter): 29.88 inches Hg (1012.0 mb)
Winds: from the NW (320 degrees) at 15 MPH (13 knots; 6.7 m/s)
Visibility: 6 or more miles (10+ km)
Ceiling: at least 12,000 feet AGL
Clouds: few clouds at 2000 feet AGL
Weather: no significant weather observed at this time

METAR text: RJAA 280430Z 34013KT 9999 FEW020 16/03 Q1011 NOSIG RMK 1CU020 A2988
Conditions at: RJAA (NARITA INTL , JP) observed 0430 UTC 28 November 2020
Temperature: 16.0°C (61°F)
Dewpoint: 3.0°C (37°F) [RH = 42%]
Pressure (altimeter): 29.85 inches Hg (1011.0 mb)
Winds: from the NNW (340 degrees) at 15 MPH (13 knots; 6.7 m/s)
Visibility: 6 or more miles (10+ km)
Ceiling: at least 12,000 feet AGL
Clouds: few clouds at 2000 feet AGL
Weather: no significant weather observed at this time

METAR text: RJAA 280400Z 32008KT 270V360 9999 FEW020 16/04 Q1011 NOSIG RMK 1CU020 A2987
Conditions at: RJAA (NARITA INTL , JP) observed 0400 UTC 28 November 2020
Temperature: 16.0°C (61°F)
Dewpoint: 4.0°C (39°F) [RH = 45%]
Pressure (altimeter): 29.85 inches Hg (1011.0 mb)
Winds: from the NW (320 degrees) at 9 MPH (8 knots; 4.1 m/s)
Visibility: 6 or more miles (10+ km)
Ceiling: at least 12,000 feet AGL
Clouds: few clouds at 2000 feet AGL
Weather: no significant weather observed at this time

METAR text: RJAA 280330Z 32008KT 280V340 9999 FEW020 16/05 Q1011 NOSIG RMK 1CU020 A2987
Conditions at: RJAA (NARITA INTL , JP) observed 0330 UTC 28 November 2020
Temperature: 16.0°C (61°F)
Dewpoint: 5.0°C (41°F) [RH = 48%]
Pressure (altimeter): 29.85 inches Hg (1011.0 mb)
Winds: from the NW (320 degrees) at 9 MPH (8 knots; 4.1 m/s)
Visibility: 6 or more miles (10+ km)
Ceiling: at least 12,000 feet AGL
Clouds: few clouds at 2000 feet AGL
Weather: no significant weather observed at this time

METAR text: RJAA 280300Z 33009KT 9999 FEW020 SCT040 16/05 Q1012 NOSIG RMK 1CU020 3CU040 A2988
Conditions at: RJAA (NARITA INTL , JP) observed 0300 UTC 28 November 2020
Temperature: 16.0°C (61°F)
Dewpoint: 5.0°C (41°F) [RH = 48%]
Pressure (altimeter): 29.88 inches Hg (1012.0 mb)
Winds: from the NNW (330 degrees) at 10 MPH (9 knots; 4.6 m/s)
Visibility: 6 or more miles (10+ km)
Ceiling: at least 12,000 feet AGL
Clouds: few clouds at 2000 feet AGL
scattered clouds at 4000 feet AGL
Weather: no significant weather observed at this time

METAR text: RJAA 280230Z 33010KT 9999 FEW020 15/05 Q1011 NOSIG RMK 1CU020 A2988
Conditions at: RJAA (NARITA INTL , JP) observed 0230 UTC 28 November 2020
Temperature: 15.0°C (59°F)
Dewpoint: 5.0°C (41°F) [RH = 51%]
Pressure (altimeter): 29.85 inches Hg (1011.0 mb)
Winds: from the NNW (330 degrees) at 12 MPH (10 knots; 5.1 m/s)
Visibility: 6 or more miles (10+ km)
Ceiling: at least 12,000 feet AGL
Clouds: few clouds at 2000 feet AGL
Weather: no significant weather observed at this time

METAR text: RJAA 280200Z 32010KT 290V360 9999 FEW020 15/06 Q1012 NOSIG RMK 1CU020 A2989
Conditions at: RJAA (NARITA INTL , JP) observed 0200 UTC 28 November 2020
Temperature: 15.0°C (59°F)
Dewpoint: 6.0°C (43°F) [RH = 55%]
Pressure (altimeter): 29.88 inches Hg (1012.0 mb)
Winds: from the NW (320 degrees) at 12 MPH (10 knots; 5.1 m/s)
Visibility: 6 or more miles (10+ km)
Ceiling: at least 12,000 feet AGL
Clouds: few clouds at 2000 feet AGL
Weather: no significant weather observed at this time

METAR text: RJAA 280130Z 33008KT 280V010 9999 FEW015 14/07 Q1012 NOSIG RMK 1CU015 A2988
Conditions at: RJAA (NARITA INTL , JP) observed 0130 UTC 28 November 2020
Temperature: 14.0°C (57°F)
Dewpoint: 7.0°C (45°F) [RH = 63%]
Pressure (altimeter): 29.88 inches Hg (1012.0 mb)
Winds: from the NNW (330 degrees) at 9 MPH (8 knots; 4.1 m/s)
Visibility: 6 or more miles (10+ km)
Ceiling: at least 12,000 feet AGL
Clouds: few clouds at 1500 feet AGL
Weather: no significant weather observed at this time

METAR text: RJAA 280100Z 31008KT 280V350 9000 FEW015 14/08 Q1011 NOSIG RMK 1CU015 A2988
Conditions at: RJAA (NARITA INTL , JP) observed 0100 UTC 28 November 2020
Temperature: 14.0°C (57°F)
Dewpoint: 8.0°C (46°F) [RH = 67%]
Pressure (altimeter): 29.85 inches Hg (1011.0 mb)
Winds: from the NW (310 degrees) at 9 MPH (8 knots; 4.1 m/s)
Visibility: 6 miles ( 9 km)
Ceiling: at least 12,000 feet AGL
Clouds: few clouds at 1500 feet AGL
Weather: no significant weather observed at this time

METAR text: RJAA 280030Z 31007KT 9000 FEW015 12/08 Q1011 NOSIG RMK 1CU015 A2988
Conditions at: RJAA (NARITA INTL , JP) observed 0030 UTC 28 November 2020
Temperature: 12.0°C (54°F)
Dewpoint: 8.0°C (46°F) [RH = 76%]
Pressure (altimeter): 29.85 inches Hg (1011.0 mb)
Winds: from the NW (310 degrees) at 8 MPH (7 knots; 3.6 m/s)
Visibility: 6 miles ( 9 km)
Ceiling: at least 12,000 feet AGL
Clouds: few clouds at 1500 feet AGL
Weather: no significant weather observed at this time

METAR text: RJAA 280000Z 30006KT 250V340 9000 FEW015 11/08 Q1011 NOSIG RMK 1CU015 A2988
Conditions at: RJAA (NARITA INTL , JP) observed 0000 UTC 28 November 2020
Temperature: 11.0°C (52°F)
Dewpoint: 8.0°C (46°F) [RH = 82%]
Pressure (altimeter): 29.85 inches Hg (1011.0 mb)
Winds: from the WNW (300 degrees) at 7 MPH (6 knots; 3.1 m/s)
Visibility: 6 miles ( 9 km)
Ceiling: at least 12,000 feet AGL
Clouds: few clouds at 1500 feet AGL
Weather: no significant weather observed at this time

METAR text: RJAA 272330Z 32007KT 280V350 9000 FEW015 10/08 Q1011 NOSIG RMK 1CU015 A2986
Conditions at: RJAA (NARITA INTL , JP) observed 2330 UTC 27 November 2020
Temperature: 10.0°C (50°F)
Dewpoint: 8.0°C (46°F) [RH = 87%]
Pressure (altimeter): 29.85 inches Hg (1011.0 mb)
Winds: from the NW (320 degrees) at 8 MPH (7 knots; 3.6 m/s)
Visibility: 6 miles ( 9 km)
Ceiling: at least 12,000 feet AGL
Clouds: few clouds at 1500 feet AGL
Weather: no significant weather observed at this time

METAR text: RJAA 272300Z 32007KT 9000 FEW010 09/08 Q1010 NOSIG RMK 1CU010 A2984
Conditions at: RJAA (NARITA INTL , JP) observed 2300 UTC 27 November 2020
Temperature: 9.0°C (48°F)
Dewpoint: 8.0°C (46°F) [RH = 93%]
Pressure (altimeter): 29.82 inches Hg (1010.0 mb)
Winds: from the NW (320 degrees) at 8 MPH (7 knots; 3.6 m/s)
Visibility: 6 miles ( 9 km)
Ceiling: at least 12,000 feet AGL
Clouds: few clouds at 1000 feet AGL
Weather: no significant weather observed at this time

METAR text: RJAA 272230Z 31007KT 9000 FEW010 08/07 Q1010 NOSIG RMK 1CU010 A2982
Conditions at: RJAA (NARITA INTL , JP) observed 2230 UTC 27 November 2020
Temperature: 8.0°C (46°F)
Dewpoint: 7.0°C (45°F) [RH = 93%]
Pressure (altimeter): 29.82 inches Hg (1010.0 mb)
Winds: from the NW (310 degrees) at 8 MPH (7 knots; 3.6 m/s)
Visibility: 6 miles ( 9 km)
Ceiling: at least 12,000 feet AGL
Clouds: few clouds at 1000 feet AGL
Weather: no significant weather observed at this time

METAR text: RJAA 272200Z 30003KT 240V330 9000 FEW010 07/07 Q1009 NOSIG RMK 1CU010 A2981
Conditions at: RJAA (NARITA INTL , JP) observed 2200 UTC 27 November 2020
Temperature: 7.0°C (45°F)
Dewpoint: 7.0°C (45°F) [RH = 100%]
Pressure (altimeter): 29.79 inches Hg (1009.0 mb)
Winds: from the WNW (300 degrees) at 3 MPH (3 knots; 1.5 m/s)
Visibility: 6 miles ( 9 km)
Ceiling: at least 12,000 feet AGL
Clouds: few clouds at 1000 feet AGL
Weather: no significant weather observed at this time

METAR text: RJAA 272130Z 34005KT 7000 FEW010 07/06 Q1009 NOSIG RMK 1CU010 A2980
Conditions at: RJAA (NARITA INTL , JP) observed 2130 UTC 27 November 2020
Temperature: 7.0°C (45°F)
Dewpoint: 6.0°C (43°F) [RH = 93%]
Pressure (altimeter): 29.79 inches Hg (1009.0 mb)
Winds: from the NNW (340 degrees) at 6 MPH (5 knots; 2.6 m/s)
Visibility: 4 miles ( 7 km)
Ceiling: at least 12,000 feet AGL
Clouds: few clouds at 1000 feet AGL
Weather: no significant weather observed at this time

METAR text: RJAA 272100Z 31004KT 7000 FEW010 07/07 Q1008 TEMPO 3000 BR RMK 1CU010 A2979
Conditions at: RJAA (NARITA INTL , JP) observed 2100 UTC 27 November 2020
Temperature: 7.0°C (45°F)
Dewpoint: 7.0°C (45°F) [RH = 100%]
Pressure (altimeter): 29.76 inches Hg (1008.0 mb)
Winds: from the NW (310 degrees) at 5 MPH (4 knots; 2.1 m/s)
Visibility: 4 miles ( 7 km)
Ceiling: at least 12,000 feet AGL
Clouds: few clouds at 1000 feet AGL
Weather: no significant weather observed at this time

METAR text: RJAA 272030Z VRB01KT 9000 FEW010 SCT013 07/07 Q1008 TEMPO 3000 BR RMK 1CU010 3SC013 A2978
Conditions at: RJAA (NARITA INTL , JP) observed 2030 UTC 27 November 2020
Temperature: 7.0°C (45°F)
Dewpoint: 7.0°C (45°F) [RH = 100%]
Pressure (altimeter): 29.76 inches Hg (1008.0 mb)
Winds: variable direction winds at 1 MPH (1 knots; 0.5 m/s)
Visibility: 6 miles ( 9 km)
Ceiling: at least 12,000 feet AGL
Clouds: few clouds at 1000 feet AGL
scattered clouds at 1300 feet AGL
Weather: no significant weather observed at this time

METAR text: RJAA 272008Z VRB02KT 7000 FEW010 BKN012 07/07 Q1008 RMK 1CU010 6SC012 A2978
Conditions at: RJAA (NARITA INTL , JP) observed 2008 UTC 27 November 2020
Temperature: 7.0°C (45°F)
Dewpoint: 7.0°C (45°F) [RH = 100%]
Pressure (altimeter): 29.76 inches Hg (1008.0 mb)
Winds: variable direction winds at 2 MPH (2 knots; 1.0 m/s)
Visibility: 4 miles ( 7 km)
Ceiling: 1200 feet AGL
Clouds: few clouds at 1000 feet AGL
broken clouds at 1200 feet AGL
Weather: no significant weather observed at this time

METAR text: RJAA 272000Z VRB02KT 7000 FEW010 07/07 Q1008 TEMPO 3000 BR RMK 1CU010 A2978
Conditions at: RJAA (NARITA INTL , JP) observed 2000 UTC 27 November 2020
Temperature: 7.0°C (45°F)
Dewpoint: 7.0°C (45°F) [RH = 100%]
Pressure (altimeter): 29.76 inches Hg (1008.0 mb)
Winds: variable direction winds at 2 MPH (2 knots; 1.0 m/s)
Visibility: 4 miles ( 7 km)
Ceiling: at least 12,000 feet AGL
Clouds: few clouds at 1000 feet AGL
Weather: no significant weather observed at this time

METAR text: RJAA 271930Z 33007KT 6000 BR FEW005 07/07 Q1008 TEMPO 3000 BR RMK 1ST005 A2978 BR SE
Conditions at: RJAA (NARITA INTL , JP) observed 1930 UTC 27 November 2020
Temperature: 7.0°C (45°F)
Dewpoint: 7.0°C (45°F) [RH = 100%]
Pressure (altimeter): 29.76 inches Hg (1008.0 mb)
Winds: from the NNW (330 degrees) at 8 MPH (7 knots; 3.6 m/s)
Visibility: 4 miles ( 6 km)
Ceiling: at least 12,000 feet AGL
Clouds: few clouds at 500 feet AGL
Weather: BR  (mist)

METAR text: RJAA 271900Z 32005KT 5000 MIFG BR FEW002 SCT/// 07/07 Q1008 TEMPO 3000 BR RMK 1ST002 A2977
Conditions at: RJAA (NARITA INTL , JP) observed 1900 UTC 27 November 2020
Temperature: 7.0°C (45°F)
Dewpoint: 7.0°C (45°F) [RH = 100%]
Pressure (altimeter): 29.76 inches Hg (1008.0 mb)
Winds: from the NW (320 degrees) at 6 MPH (5 knots; 2.6 m/s)
Visibility: 3 miles ( 5 km)
Ceiling: at least 12,000 feet AGL
Clouds: few clouds at 200 feet AGL
Weather: MIFG BR  (shallow fog, mist)

METAR text: RJAA 271830Z 33005KT 5000 MIFG BR FEW002 SCT/// 07/07 Q1008 TEMPO 3000 BR RMK 1ST002 A2977
Conditions at: RJAA (NARITA INTL , JP) observed 1830 UTC 27 November 2020
Temperature: 7.0°C (45°F)
Dewpoint: 7.0°C (45°F) [RH = 100%]
Pressure (altimeter): 29.76 inches Hg (1008.0 mb)
Winds: from the NNW (330 degrees) at 6 MPH (5 knots; 2.6 m/s)
Visibility: 3 miles ( 5 km)
Ceiling: at least 12,000 feet AGL
Clouds: few clouds at 200 feet AGL
Weather: MIFG BR  (shallow fog, mist)

METAR text: RJAA 271800Z 34006KT 6000 MIFG BR FEW015 BKN/// 07/07 Q1008 TEMPO 3000 BR RMK 1CU015 A2979 BR N-SE
Conditions at: RJAA (NARITA INTL , JP) observed 1800 UTC 27 November 2020
Temperature: 7.0°C (45°F)
Dewpoint: 7.0°C (45°F) [RH = 100%]
Pressure (altimeter): 29.76 inches Hg (1008.0 mb)
Winds: from the NNW (340 degrees) at 7 MPH (6 knots; 3.1 m/s)
Visibility: 4 miles ( 6 km)
Ceiling: at least 12,000 feet AGL
Clouds: few clouds at 1500 feet AGL
Weather: MIFG BR  (shallow fog, mist)

METAR text: RJAA 271730Z 32005KT 7000 MIFG BR FEW015 SCT/// 07/07 Q1009 TEMPO 3000 BR RMK 1CU015 A2980 BR NE-SE
Conditions at: RJAA (NARITA INTL , JP) observed 1730 UTC 27 November 2020
Temperature: 7.0°C (45°F)
Dewpoint: 7.0°C (45°F) [RH = 100%]
Pressure (altimeter): 29.79 inches Hg (1009.0 mb)
Winds: from the NW (320 degrees) at 6 MPH (5 knots; 2.6 m/s)
Visibility: 4 miles ( 7 km)
Ceiling: at least 12,000 feet AGL
Clouds: few clouds at 1500 feet AGL
Weather: MIFG BR  (shallow fog, mist)

METAR text: RJAA 271700Z 21002KT 9999 FEW015 SCT/// 07/07 Q1009 NOSIG RMK 1CU015 A2980
Conditions at: RJAA (NARITA INTL , JP) observed 1700 UTC 27 November 2020
Temperature: 7.0°C (45°F)
Dewpoint: 7.0°C (45°F) [RH = 100%]
Pressure (altimeter): 29.79 inches Hg (1009.0 mb)
Winds: from the SSW (210 degrees) at 2 MPH (2 knots; 1.0 m/s)
Visibility: 6 or more miles (10+ km)
Ceiling: at least 12,000 feet AGL
Clouds: few clouds at 1500 feet AGL
Weather: no significant weather observed at this time

METAR text: RJAA 271630Z VRB02KT 9999 MIFG FEW015 SCT/// 07/07 Q1009 NOSIG RMK 1CU015 A2982
Conditions at: RJAA (NARITA INTL , JP) observed 1630 UTC 27 November 2020
Temperature: 7.0°C (45°F)
Dewpoint: 7.0°C (45°F) [RH = 100%]
Pressure (altimeter): 29.79 inches Hg (1009.0 mb)
Winds: variable direction winds at 2 MPH (2 knots; 1.0 m/s)
Visibility: 6 or more miles (10+ km)
Ceiling: at least 12,000 feet AGL
Clouds: few clouds at 1500 feet AGL
Weather: MIFG  (shallow fog)

METAR text: RJAA 271600Z VRB02KT 9999 MIFG FEW015 08/07 Q1010 NOSIG RMK 1CU015 A2983
Conditions at: RJAA (NARITA INTL , JP) observed 1600 UTC 27 November 2020
Temperature: 8.0°C (46°F)
Dewpoint: 7.0°C (45°F) [RH = 93%]
Pressure (altimeter): 29.82 inches Hg (1010.0 mb)
Winds: variable direction winds at 2 MPH (2 knots; 1.0 m/s)
Visibility: 6 or more miles (10+ km)
Ceiling: at least 12,000 feet AGL
Clouds: few clouds at 1500 feet AGL
Weather: MIFG  (shallow fog)

METAR text: RJAA 271530Z VRB02KT 9999 FEW015 SCT060 08/07 Q1011 NOSIG RMK 1CU015 4SC060 A2985
Conditions at: RJAA (NARITA INTL , JP) observed 1530 UTC 27 November 2020
Temperature: 8.0°C (46°F)
Dewpoint: 7.0°C (45°F) [RH = 93%]
Pressure (altimeter): 29.85 inches Hg (1011.0 mb)
Winds: variable direction winds at 2 MPH (2 knots; 1.0 m/s)
Visibility: 6 or more miles (10+ km)
Ceiling: at least 12,000 feet AGL
Clouds: few clouds at 1500 feet AGL
scattered clouds at 6000 feet AGL
Weather: no significant weather observed at this time

METAR text: RJAA 271500Z 33003KT 9999 FEW015 BKN060 BKN100 09/08 Q1011 NOSIG RMK 1CU015 5SC060 7AC100 A2988
Conditions at: RJAA (NARITA INTL , JP) observed 1500 UTC 27 November 2020
Temperature: 9.0°C (48°F)
Dewpoint: 8.0°C (46°F) [RH = 93%]
Pressure (altimeter): 29.85 inches Hg (1011.0 mb)
Winds: from the NNW (330 degrees) at 3 MPH (3 knots; 1.5 m/s)
Visibility: 6 or more miles (10+ km)
Ceiling: 6000 feet AGL
Clouds: few clouds at 1500 feet AGL
broken clouds at 6000 feet AGL
broken clouds at 10000 feet AGL
Weather: no significant weather observed at this time

METAR text: RJAA 271430Z 33003KT 280V020 9999 FEW015 BKN090 BKN110 09/08 Q1012 NOSIG RMK 1CU015 5AC090 7AC110 A2990
Conditions at: RJAA (NARITA INTL , JP) observed 1430 UTC 27 November 2020
Temperature: 9.0°C (48°F)
Dewpoint: 8.0°C (46°F) [RH = 93%]
Pressure (altimeter): 29.88 inches Hg (1012.0 mb)
Winds: from the NNW (330 degrees) at 3 MPH (3 knots; 1.5 m/s)
Visibility: 6 or more miles (10+ km)
Ceiling: 9000 feet AGL
Clouds: few clouds at 1500 feet AGL
broken clouds at 9000 feet AGL
broken clouds at 11000 feet AGL
Weather: no significant weather observed at this time

METAR text: RJAA 271400Z 01004KT 9999 FEW015 BKN060 09/08 Q1013 NOSIG RMK 1CU015 5SC060 A2992
Conditions at: RJAA (NARITA INTL , JP) observed 1400 UTC 27 November 2020
Temperature: 9.0°C (48°F)
Dewpoint: 8.0°C (46°F) [RH = 93%]
Pressure (altimeter): 29.91 inches Hg (1013.0 mb)
Winds: from the N (10 degrees) at 5 MPH (4 knots; 2.1 m/s)
Visibility: 6 or more miles (10+ km)
Ceiling: 6000 feet AGL
Clouds: few clouds at 1500 feet AGL
broken clouds at 6000 feet AGL
Weather: no significant weather observed at this time

Forecast for: RJAA (NARITA INTL , JP)
Text: TAF RJAA 282305Z 2900/3006 02006KT 9999 FEW030 SCT045
Forecast period: 0000 to 0300 UTC 29 November 2020
Forecast type: FROM: standard forecast or significant change
Winds: from the NNE (20 degrees) at 7 MPH (6 knots; 3.1 m/s)
Visibility: 6 or more miles (10+ km)
Ceiling: at least 12,000 feet AGL
Clouds: few clouds at 3000 feet AGL
scattered clouds at 4500 feet AGL
Weather: no significant weather forecast for this period
Text: BECMG 2903/2905 10006KT
Forecast period: 0300 to 1000 UTC 29 November 2020
Forecast type: BECOMING: Conditions expected to become as follows by 0500 UTC 29 November 2020
Winds: from the E (100 degrees) at 7 MPH (6 knots; 3.1 m/s)
Visibility: 6 or more miles (10+ km)
Ceiling: at least 12,000 feet AGL
Clouds: few clouds at 3000 feet AGL
scattered clouds at 4500 feet AGL
Weather: no significant weather forecast for this period
Text: BECMG 2910/2912 34004KT
Forecast period: 1000 UTC 29 November 2020 to 0600 UTC 30 November 2020
Forecast type: BECOMING: Conditions expected to become as follows by 1200 UTC 29 November 2020
Winds: from the NNW (340 degrees) at 5 MPH (4 knots; 2.1 m/s)
Visibility: 6 or more miles (10+ km)
Ceiling: at least 12,000 feet AGL
Clouds: few clouds at 3000 feet AGL
scattered clouds at 4500 feet AGL
Weather: no significant weather forecast for this period
Text: TEMPO 2918/2921 4000 BR
Forecast period: 1800 to 2100 UTC 29 November 2020
Forecast type: TEMPORARY: The following changes expected for less than half the time period
Visibility: 2.49 miles (4.01 km)
Ceiling: unknown
Clouds: missing
Weather: BR  (mist)